createdAt,value
2024-02-26T00:00:33.513Z,1.3
2024-02-26T00:01:47.809Z,2.4
2024-02-26T00:03:02.097Z,1.7
2024-02-26T00:04:16.390Z,2.1
2024-02-26T00:05:30.687Z,1.6
2024-02-26T00:06:44.387Z,1.4
2024-02-26T00:07:59.273Z,2.2
2024-02-26T00:09:13.567Z,2
2024-02-26T00:10:27.865Z,1.4
2024-02-26T00:11:42.154Z,1.7
2024-02-26T00:12:56.448Z,2.3
2024-02-26T00:14:10.742Z,2.2
2024-02-26T00:15:25.042Z,2.8
2024-02-26T00:16:38.352Z,3.5
2024-02-26T00:17:52.646Z,1.2
2024-02-26T00:19:06.940Z,1.8
2024-02-26T00:20:21.230Z,2.7
2024-02-26T00:21:35.524Z,1.8
2024-02-26T00:22:49.820Z,1.7
2024-02-26T00:24:04.115Z,1.4
2024-02-26T00:25:18.405Z,1.9
2024-02-26T00:26:32.707Z,2.6
2024-02-26T00:27:47.001Z,1.7
2024-02-26T00:29:01.294Z,2.4
2024-02-26T00:30:15.587Z,2
2024-02-26T00:31:29.876Z,2.2
2024-02-26T00:32:43.185Z,2.4
2024-02-26T00:33:57.481Z,2.4
2024-02-26T00:35:11.776Z,1.9
2024-02-26T00:36:26.069Z,3
2024-02-26T00:37:40.363Z,2.6
2024-02-26T00:38:54.663Z,2.8
2024-02-26T00:40:08.956Z,1.8
2024-02-26T00:41:23.252Z,1.8
2024-02-26T00:42:37.540Z,2.3
2024-02-26T00:43:51.836Z,2.4
2024-02-26T00:45:06.137Z,3.2
2024-02-26T00:46:20.428Z,1.9
2024-02-26T00:47:34.718Z,2
2024-02-26T00:48:48.031Z,2.1
2024-02-26T00:50:02.329Z,2.5
2024-02-26T00:51:16.623Z,2
2024-02-26T00:52:30.909Z,2.8
2024-02-26T00:53:45.212Z,1.9
2024-02-26T00:54:59.499Z,2.1
2024-02-26T00:56:13.791Z,1.6
2024-02-26T00:57:28.089Z,1.5
2024-02-26T00:58:42.387Z,2.1
2024-02-26T00:59:56.685Z,2.6
2024-02-26T01:01:10.976Z,1.6
2024-02-26T01:02:25.270Z,2.4
2024-02-26T01:03:39.562Z,1.8
2024-02-26T01:04:52.872Z,2.2
2024-02-26T01:06:07.170Z,1.9
2024-02-26T01:07:21.462Z,2
2024-02-26T01:08:35.755Z,2.4
2024-02-26T01:09:50.051Z,2.3
2024-02-26T01:11:04.345Z,2.1
2024-02-26T01:12:17.661Z,2.1
2024-02-26T01:13:31.952Z,2.2
2024-02-26T01:14:46.250Z,1.4
2024-02-26T01:16:00.540Z,2.9
2024-02-26T01:17:14.840Z,1.9
2024-02-26T01:18:29.125Z,1.9
2024-02-26T01:19:43.457Z,2.2
2024-02-26T01:20:57.714Z,2.2
2024-02-26T01:22:12.010Z,1.8
2024-02-26T01:23:26.310Z,2.2
2024-02-26T01:24:40.600Z,2.2
2024-02-26T01:25:54.893Z,2.3
2024-02-26T01:27:09.185Z,2.1
2024-02-26T01:28:22.502Z,2.6
2024-02-26T01:29:36.790Z,2.8
2024-02-26T01:30:51.089Z,1.9
2024-02-26T01:32:05.382Z,1.5
2024-02-26T01:33:19.675Z,2.4
2024-02-26T01:34:33.965Z,2.2
2024-02-26T01:35:48.268Z,3.6
2024-02-26T01:37:02.558Z,1.4
2024-02-26T01:38:16.850Z,1.8
2024-02-26T01:39:31.150Z,1.6
2024-02-26T01:40:45.438Z,1.6
2024-02-26T01:41:59.735Z,2.1
2024-02-26T01:43:14.032Z,1.3
2024-02-26T01:44:27.340Z,1.6
2024-02-26T01:45:41.628Z,1.6
2024-02-26T01:46:55.931Z,1.7
2024-02-26T01:48:10.219Z,1.8
2024-02-26T01:49:24.514Z,1.7
2024-02-26T01:50:38.809Z,1.7
2024-02-26T01:51:53.105Z,1.6
2024-02-26T01:53:07.402Z,1.6
2024-02-26T01:54:21.693Z,2.5
2024-02-26T01:55:35.989Z,1.9
2024-02-26T01:56:50.283Z,1.6
2024-02-26T01:58:04.574Z,1.4
2024-02-26T01:59:18.865Z,2.1
2024-02-26T02:00:32.182Z,2.8
2024-02-26T02:01:46.471Z,1.2
2024-02-26T02:03:00.768Z,1.7
2024-02-26T02:04:15.062Z,2.4
2024-02-26T02:05:29.352Z,1.7
2024-02-26T02:06:43.645Z,1.7
2024-02-26T02:07:57.942Z,1.8
2024-02-26T02:09:12.239Z,1.8
2024-02-26T02:10:26.532Z,2.2
2024-02-26T02:11:40.825Z,1.8
2024-02-26T02:12:55.115Z,2.3
2024-02-26T02:14:09.411Z,1.9
2024-02-26T02:15:23.710Z,1.4
2024-02-26T02:16:37.018Z,1.5
2024-02-26T02:17:51.315Z,1.7
2024-02-26T02:19:05.609Z,1.8
2024-02-26T02:20:19.904Z,1.7
2024-02-26T02:21:34.193Z,1.2
2024-02-26T02:22:48.486Z,1
2024-02-26T02:24:02.778Z,1.4
2024-02-26T02:25:17.072Z,1.6
2024-02-26T02:26:31.371Z,2.6
2024-02-26T02:27:45.662Z,1.3
2024-02-26T02:28:59.956Z,1.4
2024-02-26T02:30:14.254Z,2.3
2024-02-26T02:31:28.548Z,2.3
2024-02-26T02:32:41.854Z,1.7
2024-02-26T02:33:56.156Z,1.9
2024-02-26T02:35:10.447Z,1.1
2024-02-26T02:36:24.741Z,1.3
2024-02-26T02:37:39.030Z,1.2
2024-02-26T02:38:53.331Z,1.5
2024-02-26T02:40:07.626Z,1.5
2024-02-26T02:41:21.916Z,1.7
2024-02-26T02:42:36.211Z,1.7
2024-02-26T02:43:50.500Z,1.9
2024-02-26T02:45:04.801Z,1.7
2024-02-26T02:46:19.093Z,1.3
2024-02-26T02:47:33.383Z,2.1
2024-02-26T02:48:46.698Z,1.8
2024-02-26T02:50:00.324Z,2.2
2024-02-26T02:51:15.280Z,1.5
2024-02-26T02:52:29.583Z,2.2
2024-02-26T02:53:43.868Z,1.2
2024-02-26T02:54:58.165Z,1.8
2024-02-26T02:56:12.458Z,1.1
2024-02-26T02:57:26.757Z,1.8
2024-02-26T02:58:41.048Z,2.4
2024-02-26T02:59:55.347Z,2
2024-02-26T03:01:09.636Z,1.5
2024-02-26T03:02:23.929Z,1.9
2024-02-26T03:03:38.229Z,1.9
2024-02-26T03:04:51.539Z,2.1
2024-02-26T03:06:05.829Z,2.8
2024-02-26T03:07:20.124Z,2.4
2024-02-26T03:08:34.422Z,3
2024-02-26T03:09:48.713Z,1.8
2024-02-26T03:11:03.002Z,2.3
2024-02-26T03:12:16.624Z,2.7
2024-02-26T03:13:31.590Z,1.8
2024-02-26T03:14:45.888Z,3.5
2024-02-26T03:16:00.179Z,1.7
2024-02-26T03:17:14.479Z,3
2024-02-26T03:18:28.769Z,3.1
2024-02-26T03:19:43.066Z,2.5
2024-02-26T03:20:56.370Z,2
2024-02-26T03:22:10.671Z,3.3
2024-02-26T03:23:24.966Z,4.1
2024-02-26T03:24:39.256Z,3.1
2024-02-26T03:25:53.553Z,3.2
2024-02-26T03:27:07.847Z,2.4
2024-02-26T03:28:22.139Z,2.9
2024-02-26T03:29:36.429Z,3
2024-02-26T03:30:50.723Z,2.4
2024-02-26T03:32:05.026Z,2.7
2024-02-26T03:33:19.319Z,3
2024-02-26T03:34:33.606Z,2.3
2024-02-26T03:35:47.901Z,2.7
2024-02-26T03:37:01.209Z,2.6
2024-02-26T03:38:15.507Z,3.1
2024-02-26T03:39:29.805Z,2.7
2024-02-26T03:40:44.099Z,2.7
2024-02-26T03:41:58.391Z,3.1
2024-02-26T03:43:12.683Z,2.8
2024-02-26T03:44:26.974Z,2.5
2024-02-26T03:45:41.273Z,2.4
2024-02-26T03:46:55.569Z,2.5
2024-02-26T03:48:09.856Z,2.3
2024-02-26T03:49:24.152Z,3.3
2024-02-26T03:50:38.452Z,2.3
2024-02-26T03:51:52.045Z,3.2
2024-02-26T03:53:06.050Z,2.2
2024-02-26T03:54:20.344Z,2.5
2024-02-26T03:55:34.638Z,2.4
2024-02-26T03:56:48.934Z,3.3
2024-02-26T03:58:03.227Z,3.2
2024-02-26T03:59:17.523Z,2.2
2024-02-26T04:00:31.821Z,2.6
2024-02-26T04:01:46.112Z,3.2
2024-02-26T04:03:00.405Z,2.7
2024-02-26T04:04:14.698Z,3.6
2024-02-26T04:05:28.997Z,2.8
2024-02-26T04:06:43.289Z,3
2024-02-26T04:07:57.581Z,3.1
2024-02-26T04:09:10.891Z,2.5
2024-02-26T04:10:25.180Z,3.1
2024-02-26T04:11:39.474Z,3
2024-02-26T04:12:53.774Z,2.1
2024-02-26T04:14:08.065Z,3.2
2024-02-26T04:15:21.659Z,2.3
2024-02-26T04:16:36.651Z,3.3
2024-02-26T04:17:50.945Z,3.3
2024-02-26T04:19:05.240Z,2.5
2024-02-26T04:20:19.540Z,3.5
2024-02-26T04:21:33.830Z,3.1
2024-02-26T04:22:48.124Z,2.6
2024-02-26T04:24:02.416Z,2.9
2024-02-26T04:25:15.726Z,3.4
2024-02-26T04:26:30.020Z,2.3
2024-02-26T04:27:44.314Z,2.8
2024-02-26T04:28:58.609Z,1.9
2024-02-26T04:30:12.908Z,2.7
2024-02-26T04:31:27.201Z,2.9
2024-02-26T04:32:41.499Z,3.1
2024-02-26T04:33:55.787Z,2
2024-02-26T04:35:10.083Z,2.9
2024-02-26T04:36:24.383Z,2.2
2024-02-26T04:37:38.675Z,2.2
2024-02-26T04:38:52.963Z,3.3
2024-02-26T04:40:07.258Z,2.4
2024-02-26T04:41:20.574Z,3.3
2024-02-26T04:42:34.868Z,2.7
2024-02-26T04:43:49.163Z,2.7
2024-02-26T04:45:03.453Z,2.2
2024-02-26T04:46:17.748Z,3.1
2024-02-26T04:47:32.046Z,3.3
2024-02-26T04:48:46.340Z,3.1
2024-02-26T04:50:00.632Z,3.4
2024-02-26T04:51:14.926Z,2.9
2024-02-26T04:52:29.217Z,3.9
2024-02-26T04:53:43.509Z,4.1
2024-02-26T04:54:57.812Z,3
2024-02-26T04:56:12.105Z,3.2
2024-02-26T04:57:25.415Z,3.4
2024-02-26T04:58:39.704Z,2.5
2024-02-26T04:59:54.004Z,3.3
2024-02-26T05:01:08.296Z,4.1
2024-02-26T05:02:22.590Z,3.1
2024-02-26T05:03:36.886Z,3.2
2024-02-26T05:04:51.174Z,2.4
2024-02-26T05:06:05.472Z,2.9
2024-02-26T05:07:19.779Z,3.8
2024-02-26T05:08:34.060Z,2.7
2024-02-26T05:09:48.353Z,3.3
2024-02-26T05:11:02.645Z,2.1
2024-02-26T05:12:16.944Z,3.4
2024-02-26T05:13:30.247Z,3.1
2024-02-26T05:14:44.548Z,3.3
2024-02-26T05:15:58.104Z,2.7
2024-02-26T05:17:13.137Z,2.7
2024-02-26T05:18:27.424Z,3.4
2024-02-26T05:19:41.720Z,2.7
2024-02-26T05:20:55.034Z,2.9
2024-02-26T05:22:09.329Z,3.3
2024-02-26T05:23:23.622Z,3.2
2024-02-26T05:24:37.921Z,2.4
2024-02-26T05:25:52.217Z,2.3
2024-02-26T05:27:06.504Z,2.1
2024-02-26T05:28:20.803Z,2.9
2024-02-26T05:29:35.099Z,2.7
2024-02-26T05:30:49.392Z,3.3
2024-02-26T05:32:03.681Z,2.4
2024-02-26T05:33:17.978Z,2.5
2024-02-26T05:34:32.276Z,2.5
2024-02-26T05:35:46.569Z,2.6
2024-02-26T05:36:59.881Z,3.9
2024-02-26T05:38:14.119Z,3.2
2024-02-26T05:39:28.365Z,2.3
2024-02-26T05:40:42.611Z,2.6
2024-02-26T05:41:56.904Z,2.8
2024-02-26T05:43:11.152Z,2.2
2024-02-26T05:44:25.451Z,2.2
2024-02-26T05:45:39.704Z,2.5
2024-02-26T05:46:53.942Z,2.7
2024-02-26T05:48:08.178Z,2.7
2024-02-26T05:49:22.420Z,2.5
2024-02-26T05:50:36.662Z,2.7
2024-02-26T05:51:50.903Z,3.3
2024-02-26T05:53:04.154Z,3.4
2024-02-26T05:54:18.394Z,3.6
2024-02-26T05:55:32.637Z,2.7
2024-02-26T05:56:46.881Z,3
2024-02-26T05:58:01.122Z,2.3
2024-02-26T05:59:15.356Z,2.7
2024-02-26T06:00:29.600Z,3.3
2024-02-26T06:01:43.843Z,3.2
2024-02-26T06:02:58.082Z,2.5
2024-02-26T06:04:12.315Z,3.2
2024-02-26T06:05:26.562Z,1.9
2024-02-26T06:06:40.802Z,2.8
2024-02-26T06:07:55.035Z,3.1
2024-02-26T06:09:08.296Z,2.1
2024-02-26T06:10:22.533Z,2.9
2024-02-26T06:11:36.778Z,3.1
2024-02-26T06:12:51.016Z,3.1
2024-02-26T06:14:05.259Z,3.2
2024-02-26T06:15:19.492Z,2
2024-02-26T06:16:33.737Z,2.9
2024-02-26T06:17:47.972Z,2.3
2024-02-26T06:19:02.214Z,3.7
2024-02-26T06:20:16.454Z,3.7
2024-02-26T06:21:30.692Z,2.4
2024-02-26T06:22:44.940Z,2.9
2024-02-26T06:23:59.179Z,3.7
2024-02-26T06:25:12.434Z,3.5
2024-02-26T06:26:26.671Z,2.9
2024-02-26T06:27:40.913Z,3
2024-02-26T06:28:55.158Z,1.9
2024-02-26T06:30:09.391Z,2.7
2024-02-26T06:31:23.630Z,2.9
2024-02-26T06:32:37.874Z,2.3
2024-02-26T06:33:52.119Z,2
2024-02-26T06:35:06.358Z,3
2024-02-26T06:36:20.598Z,2.3
2024-02-26T06:37:34.834Z,2.6
2024-02-26T06:38:49.073Z,2.4
2024-02-26T06:40:03.315Z,2.4
2024-02-26T06:41:16.572Z,3
2024-02-26T06:42:30.864Z,2.7
2024-02-26T06:43:45.051Z,2.3
2024-02-26T06:44:59.291Z,3.1
2024-02-26T06:46:13.531Z,2.4
2024-02-26T06:47:27.769Z,1.7
2024-02-26T06:48:42.010Z,2.3
2024-02-26T06:49:56.248Z,2.5
2024-02-26T06:51:10.490Z,2.6
2024-02-26T06:52:24.731Z,3
2024-02-26T06:53:38.976Z,2.6
2024-02-26T06:54:53.214Z,2.3
2024-02-26T06:56:07.454Z,1.9
2024-02-26T06:57:20.710Z,2.1
2024-02-26T06:58:34.952Z,2.5
2024-02-26T06:59:49.187Z,2.2
2024-02-26T07:01:03.427Z,3.9
2024-02-26T07:02:17.672Z,3
2024-02-26T07:03:31.905Z,2.6
2024-02-26T07:04:46.146Z,2.5
2024-02-26T07:06:00.385Z,3.5
2024-02-26T07:07:14.631Z,2.6
2024-02-26T07:08:28.872Z,3.3
2024-02-26T07:09:43.114Z,3
2024-02-26T07:10:57.351Z,3.2
2024-02-26T07:12:11.590Z,3.2
2024-02-26T07:13:24.843Z,2.7
2024-02-26T07:14:39.083Z,2.8
2024-02-26T07:15:53.327Z,3.1
2024-02-26T07:17:07.561Z,4.6
2024-02-26T07:18:21.804Z,2.3
2024-02-26T07:19:36.049Z,3.2
2024-02-26T07:20:50.284Z,2
2024-02-26T07:22:04.529Z,3
2024-02-26T07:23:18.760Z,3.1
2024-02-26T07:24:33.001Z,2.5
2024-02-26T07:25:47.246Z,2.5
2024-02-26T07:27:01.480Z,2.5
2024-02-26T07:28:15.725Z,2.7
2024-02-26T07:29:28.983Z,2.5
2024-02-26T07:30:43.223Z,2.4
2024-02-26T07:31:57.459Z,3.3
2024-02-26T07:33:11.699Z,3
2024-02-26T07:34:25.941Z,2.4
2024-02-26T07:35:40.177Z,2.5
2024-02-26T07:36:54.418Z,2.4
2024-02-26T07:38:08.664Z,2.8
2024-02-26T07:39:22.897Z,2.9
2024-02-26T07:40:37.140Z,2.8
2024-02-26T07:41:51.378Z,2.1
2024-02-26T07:43:05.617Z,2.2
2024-02-26T07:44:19.862Z,2.6
2024-02-26T07:45:33.116Z,1.7
2024-02-26T07:46:47.356Z,2.3
2024-02-26T07:48:01.596Z,3.2
2024-02-26T07:49:15.835Z,2.2
2024-02-26T07:50:30.070Z,2.9
2024-02-26T07:51:44.316Z,2.9
2024-02-26T07:52:58.550Z,2.4
2024-02-26T07:54:12.789Z,2.4
2024-02-26T07:55:27.031Z,1.7
2024-02-26T07:56:41.273Z,2.5
2024-02-26T07:57:55.512Z,2.3
2024-02-26T07:59:09.753Z,2.9
2024-02-26T08:00:23.987Z,1.8
2024-02-26T08:01:37.247Z,2
2024-02-26T08:02:51.484Z,1.5
2024-02-26T08:04:05.730Z,3.4
2024-02-26T08:05:19.968Z,2.9
2024-02-26T08:06:34.201Z,2.1
2024-02-26T08:07:48.447Z,2.2
2024-02-26T08:09:02.685Z,2.6
2024-02-26T08:10:16.924Z,2.8
2024-02-26T08:11:31.169Z,2.2
2024-02-26T08:12:45.407Z,1.8
2024-02-26T08:13:59.642Z,2.4
2024-02-26T08:15:13.889Z,3.4
2024-02-26T08:16:28.120Z,2.8
2024-02-26T08:17:41.380Z,2.1
2024-02-26T08:18:55.619Z,2.7
2024-02-26T08:20:09.857Z,2.7
2024-02-26T08:21:24.098Z,2
2024-02-26T08:22:38.338Z,2.8
2024-02-26T08:23:52.584Z,1.7
2024-02-26T08:25:06.817Z,2.8
2024-02-26T08:26:21.060Z,3.1
2024-02-26T08:27:35.295Z,2.1
2024-02-26T08:28:49.535Z,2.5
2024-02-26T08:30:03.775Z,2.1
2024-02-26T08:31:18.015Z,1.6
2024-02-26T08:32:32.252Z,2.3
2024-02-26T08:33:45.513Z,2.4
2024-02-26T08:34:59.746Z,1.9
2024-02-26T08:36:13.994Z,2.1
2024-02-26T08:37:28.227Z,2
2024-02-26T08:38:42.470Z,2.3
2024-02-26T08:39:56.708Z,2
2024-02-26T08:41:10.943Z,2.9
2024-02-26T08:42:25.188Z,1.8
2024-02-26T08:43:39.426Z,2.2
2024-02-26T08:44:53.663Z,2.1
2024-02-26T08:46:07.904Z,1.9
2024-02-26T08:47:22.147Z,2.5
2024-02-26T08:48:36.381Z,2.3
2024-02-26T08:49:49.635Z,1.8
2024-02-26T08:51:03.880Z,2.1
2024-02-26T08:52:18.116Z,1.1
2024-02-26T08:53:32.362Z,1.4
2024-02-26T08:54:46.601Z,2
2024-02-26T08:56:00.839Z,1.7
2024-02-26T08:57:15.071Z,2.3
2024-02-26T08:58:29.310Z,2.2
2024-02-26T08:59:43.553Z,1.5
2024-02-26T09:00:57.790Z,1.2
2024-02-26T09:02:12.033Z,2
2024-02-26T09:04:40.514Z,1.8
2024-02-26T09:05:53.765Z,1.6
2024-02-26T09:07:08.011Z,2.2
2024-02-26T09:08:22.242Z,2.3
2024-02-26T09:09:36.485Z,1.3
2024-02-26T09:10:50.724Z,1.3
2024-02-26T09:12:04.960Z,1.7
2024-02-26T09:13:19.200Z,1.7
2024-02-26T09:14:33.447Z,2.3
2024-02-26T09:15:47.678Z,1
2024-02-26T09:17:01.925Z,1.2
2024-02-26T09:18:16.162Z,1.4
2024-02-26T09:19:30.403Z,1.7
2024-02-26T09:20:44.635Z,1.5
2024-02-26T09:21:57.893Z,1.9
2024-02-26T09:23:12.133Z,0.9
2024-02-26T09:24:26.370Z,1.3
2024-02-26T09:25:40.607Z,1.3
2024-02-26T09:26:54.852Z,1.6
2024-02-26T09:28:09.093Z,1.4
2024-02-26T09:29:22.355Z,1.8
2024-02-26T09:30:36.593Z,1.5
2024-02-26T09:31:50.826Z,0.9
2024-02-26T09:33:05.067Z,1.4
2024-02-26T09:34:19.310Z,2.4
2024-02-26T09:35:33.548Z,1.6
2024-02-26T09:36:47.783Z,1.4
2024-02-26T09:38:02.024Z,1.2
2024-02-26T09:39:16.264Z,1.1
2024-02-26T09:40:30.500Z,1.2
2024-02-26T09:41:44.739Z,1
2024-02-26T09:42:58.978Z,1.5
2024-02-26T09:44:13.216Z,1.8
2024-02-26T09:45:26.471Z,1.1
2024-02-26T09:46:40.717Z,1.7
2024-02-26T09:47:54.951Z,0.9
2024-02-26T09:49:09.191Z,1.3
2024-02-26T09:50:23.429Z,1
2024-02-26T09:51:37.668Z,1.2
2024-02-26T09:52:51.907Z,0.8
2024-02-26T09:54:06.148Z,1.6
2024-02-26T09:55:20.385Z,1.1
2024-02-26T09:56:34.620Z,1.3
2024-02-26T09:57:48.866Z,1
2024-02-26T09:59:03.101Z,1.3
2024-02-26T10:00:17.338Z,1
2024-02-26T10:02:44.832Z,1.6
2024-02-26T10:03:59.076Z,1.2
2024-02-26T10:05:13.318Z,1.3
2024-02-26T10:06:27.555Z,0.9
2024-02-26T10:07:41.797Z,1.2
2024-02-26T10:08:56.035Z,1.1
2024-02-26T10:10:10.272Z,1.5
2024-02-26T10:11:24.506Z,1.4
2024-02-26T10:12:38.753Z,1.7
2024-02-26T10:13:52.992Z,1.5
2024-02-26T10:15:07.226Z,1.2
2024-02-26T10:16:21.464Z,1
2024-02-26T10:17:34.721Z,1.7
2024-02-26T10:18:48.958Z,1.4
2024-02-26T10:20:03.200Z,1.4
2024-02-26T10:21:17.437Z,1.4
2024-02-26T10:22:31.678Z,1.3
2024-02-26T10:23:45.917Z,1.8
2024-02-26T10:25:00.159Z,1.3
2024-02-26T10:26:14.395Z,1.1
2024-02-26T10:27:28.634Z,0.8
2024-02-26T10:28:42.879Z,1.5
2024-02-26T10:29:57.114Z,0.6
2024-02-26T10:31:11.351Z,0.9
2024-02-26T10:32:25.591Z,1.1
2024-02-26T10:33:38.846Z,1.3
2024-02-26T10:34:53.086Z,1.3
2024-02-26T10:36:07.327Z,1.1
2024-02-26T10:37:21.566Z,1.2
2024-02-26T10:38:35.804Z,1
2024-02-26T10:39:50.046Z,1.5
2024-02-26T10:41:04.283Z,1.4
2024-02-26T10:42:18.516Z,1.2
2024-02-26T10:43:32.757Z,1.2
2024-02-26T10:44:46.995Z,1.6
2024-02-26T10:46:01.240Z,1
2024-02-26T10:47:15.477Z,1.4
2024-02-26T10:48:29.714Z,1.3
2024-02-26T10:49:42.975Z,1.5
2024-02-26T10:50:57.212Z,1.3
2024-02-26T10:52:11.447Z,1.4
2024-02-26T10:53:25.689Z,1
2024-02-26T10:54:39.924Z,1
2024-02-26T10:55:54.164Z,1.3
2024-02-26T10:57:08.404Z,1.4
2024-02-26T10:58:22.641Z,1.4
2024-02-26T10:59:36.883Z,1.2
2024-02-26T11:00:51.131Z,1.8
2024-02-26T11:02:05.360Z,1.1
2024-02-26T11:03:19.605Z,1.4
2024-02-26T11:04:33.844Z,1.4
2024-02-26T11:05:47.097Z,1.1
2024-02-26T11:07:01.338Z,1.6
2024-02-26T11:08:15.575Z,1.2
2024-02-26T11:09:29.820Z,1.5
2024-02-26T11:10:44.053Z,1.7
2024-02-26T11:11:58.300Z,1.7
2024-02-26T11:13:12.535Z,0.9
2024-02-26T11:14:26.776Z,2
2024-02-26T11:15:41.018Z,1.3
2024-02-26T11:16:55.248Z,2.1
2024-02-26T11:18:09.490Z,1.7
2024-02-26T11:19:23.736Z,1.8
2024-02-26T11:20:37.975Z,1.1
2024-02-26T11:21:51.223Z,1.6
2024-02-26T11:23:05.465Z,1.7
2024-02-26T11:24:19.703Z,1.9
2024-02-26T11:25:33.944Z,2.1
2024-02-26T11:26:48.185Z,1.7
2024-02-26T11:28:02.424Z,1.5
2024-02-26T11:29:16.660Z,1.1
2024-02-26T11:30:30.898Z,1.1
2024-02-26T11:31:45.146Z,1.5
2024-02-26T11:32:59.385Z,2
2024-02-26T11:34:13.624Z,1.7
2024-02-26T11:35:27.861Z,1.8
2024-02-26T11:36:42.104Z,2
2024-02-26T11:37:55.352Z,1.5
2024-02-26T11:39:09.598Z,1.9
2024-02-26T11:40:23.833Z,2.2
2024-02-26T11:41:38.072Z,1.5
2024-02-26T11:42:52.314Z,1.3
2024-02-26T11:44:06.556Z,1.5
2024-02-26T11:45:20.790Z,1.9
2024-02-26T11:46:35.027Z,1.4
2024-02-26T11:47:49.275Z,1.1
2024-02-26T11:49:03.505Z,1.3
2024-02-26T11:50:17.747Z,1.6
2024-02-26T11:51:31.990Z,1.4
2024-02-26T11:52:46.229Z,1.5
2024-02-26T11:53:59.479Z,2.1
2024-02-26T11:55:13.718Z,2.3
2024-02-26T11:56:27.966Z,2.2
2024-02-26T11:57:42.200Z,2
2024-02-26T11:58:56.438Z,1.7
2024-02-26T12:00:10.678Z,2
2024-02-26T12:01:24.915Z,1.1
2024-02-26T12:02:39.154Z,1.4
2024-02-26T12:03:53.394Z,2.1
2024-02-26T12:05:07.633Z,1.7
2024-02-26T12:06:21.874Z,1.8
2024-02-26T12:07:36.114Z,2.4
2024-02-26T12:08:50.357Z,1.3
2024-02-26T12:10:03.620Z,1.7
2024-02-26T12:11:17.849Z,1.5
2024-02-26T12:12:32.088Z,1.9
2024-02-26T12:13:46.328Z,1.6
2024-02-26T12:15:00.567Z,1.4
2024-02-26T12:16:14.804Z,1.8
2024-02-26T12:17:29.049Z,1.2
2024-02-26T12:18:43.282Z,1.4
2024-02-26T12:19:57.528Z,1.1
2024-02-26T12:21:11.761Z,1.5
2024-02-26T12:22:26.000Z,1.5
2024-02-26T12:23:40.243Z,1.8
2024-02-26T12:24:54.479Z,1.6
2024-02-26T12:26:07.734Z,1.5
2024-02-26T12:27:21.979Z,1
2024-02-26T12:28:36.218Z,1.8
2024-02-26T12:29:50.459Z,1.6
2024-02-26T12:31:04.700Z,1.9
2024-02-26T12:32:18.938Z,1.4
2024-02-26T12:33:33.179Z,1.4
2024-02-26T12:34:47.415Z,2
2024-02-26T12:36:01.650Z,2.2
2024-02-26T12:37:15.895Z,1.1
2024-02-26T12:38:30.130Z,2.2
2024-02-26T12:39:44.376Z,1.4
2024-02-26T12:40:58.613Z,1.9
2024-02-26T12:42:11.862Z,1
2024-02-26T12:43:26.106Z,1
2024-02-26T12:44:40.345Z,2
2024-02-26T12:45:54.590Z,1.6
2024-02-26T12:47:08.821Z,1.2
2024-02-26T12:48:23.061Z,1.4
2024-02-26T12:49:37.306Z,1
2024-02-26T12:50:51.542Z,1.7
2024-02-26T12:52:05.781Z,2
2024-02-26T12:53:20.027Z,1.4
2024-02-26T12:54:34.260Z,1.8
2024-02-26T12:55:48.505Z,1.2
2024-02-26T12:57:02.740Z,1.4
2024-02-26T12:58:16.000Z,1.6
2024-02-26T12:59:30.232Z,1.5
2024-02-26T13:00:44.478Z,1.3
2024-02-26T13:01:58.718Z,1.6
2024-02-26T13:03:12.954Z,1.4
2024-02-26T13:04:27.189Z,1.6
2024-02-26T13:05:41.428Z,1.6
2024-02-26T13:06:55.670Z,1.4
2024-02-26T13:08:09.909Z,2.2
2024-02-26T13:09:24.151Z,1.4
2024-02-26T13:10:38.384Z,2.2
2024-02-26T13:11:52.626Z,1.2
2024-02-26T13:13:06.870Z,2
2024-02-26T13:14:20.126Z,2.3
2024-02-26T13:15:34.361Z,1.7
2024-02-26T13:16:48.598Z,1.7
2024-02-26T13:18:02.836Z,2
2024-02-26T13:19:17.084Z,2.2
2024-02-26T13:20:31.320Z,1.6
2024-02-26T13:21:45.563Z,1.5
2024-02-26T13:22:59.794Z,1.7
2024-02-26T13:24:14.038Z,2.6
2024-02-26T13:25:28.281Z,1.5
2024-02-26T13:26:42.517Z,1
2024-02-26T13:27:56.751Z,1.3
2024-02-26T13:29:10.997Z,1.5
2024-02-26T13:30:24.246Z,1.6
2024-02-26T13:31:38.488Z,1.3
2024-02-26T13:32:52.734Z,1.7
2024-02-26T13:34:06.968Z,1.1
2024-02-26T13:35:21.207Z,1.4
2024-02-26T13:36:35.452Z,1.3
2024-02-26T13:37:48.709Z,1.6
2024-02-26T13:39:02.944Z,2
2024-02-26T13:40:17.191Z,1.8
2024-02-26T13:41:31.427Z,2
2024-02-26T13:42:45.663Z,1.7
2024-02-26T13:43:59.904Z,1.4
2024-02-26T13:45:14.141Z,1.9
2024-02-26T13:46:28.389Z,2
2024-02-26T13:47:42.626Z,1.3
2024-02-26T13:48:56.862Z,1.7
2024-02-26T13:50:11.102Z,1.5
2024-02-26T13:51:25.341Z,1.4
2024-02-26T13:52:39.579Z,1.4
2024-02-26T13:53:52.840Z,1.7
2024-02-26T13:55:07.079Z,2.1
2024-02-26T13:56:21.321Z,1.5
2024-02-26T13:57:35.555Z,1.9
2024-02-26T13:58:49.794Z,1.5
2024-02-26T14:00:04.033Z,1.6
2024-02-26T14:01:18.270Z,1.8
2024-02-26T14:02:32.513Z,2
2024-02-26T14:03:46.751Z,2
2024-02-26T14:05:00.989Z,1.4
2024-02-26T14:06:15.232Z,1.8
2024-02-26T14:07:29.466Z,1.1
2024-02-26T14:08:43.711Z,1.6
2024-02-26T14:09:56.966Z,1.7
2024-02-26T14:11:11.198Z,1.7
2024-02-26T14:13:39.678Z,1.2
2024-02-26T14:14:53.925Z,1.3
2024-02-26T14:16:08.159Z,1.8
2024-02-26T14:17:22.395Z,1.6
2024-02-26T14:18:36.634Z,1.6
2024-02-26T14:19:50.878Z,1
2024-02-26T14:21:05.111Z,1
2024-02-26T14:22:19.351Z,1.7
2024-02-26T14:23:33.590Z,1.4
2024-02-26T14:24:47.830Z,0.8
2024-02-26T14:26:01.087Z,1.4
2024-02-26T14:27:15.325Z,1.7
2024-02-26T14:28:29.570Z,1.3
2024-02-26T14:29:43.801Z,1.2
2024-02-26T14:30:58.039Z,1
2024-02-26T14:32:12.284Z,1
2024-02-26T14:33:26.519Z,1.2
2024-02-26T14:34:40.761Z,1.7
2024-02-26T14:35:55.005Z,1.4
2024-02-26T14:37:09.242Z,1.2
2024-02-26T14:38:23.473Z,1.2
2024-02-26T14:39:37.714Z,0.9
2024-02-26T14:40:51.957Z,0.7
2024-02-26T14:42:05.213Z,0.9
2024-02-26T14:43:19.452Z,1.3
2024-02-26T14:44:33.686Z,1.5
2024-02-26T14:45:47.929Z,1.1
2024-02-26T14:47:02.165Z,1.1
2024-02-26T14:48:16.402Z,0.9
2024-02-26T14:49:30.642Z,1.3
2024-02-26T14:50:44.888Z,1.3
2024-02-26T14:51:59.124Z,1.3
2024-02-26T14:53:13.361Z,1.1
2024-02-26T14:54:27.599Z,1.7
2024-02-26T14:55:41.842Z,1.7
2024-02-26T14:56:56.083Z,1.3
2024-02-26T14:58:09.332Z,1.2
2024-02-26T14:59:23.577Z,1.6
2024-02-26T15:00:37.813Z,1.5
2024-02-26T15:01:52.056Z,1.8
2024-02-26T15:03:06.292Z,2.2
2024-02-26T15:04:20.525Z,1.1
2024-02-26T15:05:34.765Z,1.2
2024-02-26T15:06:49.009Z,1.3
2024-02-26T15:08:03.249Z,1.7
2024-02-26T15:09:17.486Z,2.4
2024-02-26T15:10:31.723Z,1.3
2024-02-26T15:11:45.965Z,1.6
2024-02-26T15:13:00.199Z,0.9
2024-02-26T15:14:13.455Z,1
2024-02-26T15:15:27.694Z,1.3
2024-02-26T15:16:41.932Z,1.3
2024-02-26T15:17:56.171Z,1.2
2024-02-26T15:19:10.411Z,0.8
2024-02-26T15:20:24.653Z,1.3
2024-02-26T15:21:38.893Z,1.2
2024-02-26T15:22:53.134Z,1.2
2024-02-26T15:24:07.372Z,0.9
2024-02-26T15:25:21.606Z,1.4
2024-02-26T15:26:35.846Z,1.2
2024-02-26T15:27:50.085Z,1.4
2024-02-26T15:29:04.324Z,1.9
2024-02-26T15:30:17.580Z,1.8
2024-02-26T15:31:31.817Z,1.9
2024-02-26T15:32:46.062Z,1.6
2024-02-26T15:34:00.303Z,2
2024-02-26T15:35:14.541Z,2.4
2024-02-26T15:36:28.780Z,3.1
2024-02-26T15:37:43.021Z,3
2024-02-26T15:38:57.257Z,2.3
2024-02-26T15:40:11.499Z,1.8
2024-02-26T15:41:25.740Z,2.5
2024-02-26T15:42:39.979Z,2.4
2024-02-26T15:43:54.214Z,2.5
2024-02-26T15:45:08.457Z,1.7
2024-02-26T15:46:21.708Z,2.3
2024-02-26T15:47:35.951Z,1.9
2024-02-26T15:48:50.191Z,2.6
2024-02-26T15:50:04.428Z,1.9
2024-02-26T15:51:18.674Z,2.3
2024-02-26T15:52:32.907Z,2.3
2024-02-26T15:53:47.143Z,1.5
2024-02-26T15:55:01.389Z,2.7
2024-02-26T15:56:15.623Z,2.1
2024-02-26T15:57:29.868Z,1.5
2024-02-26T15:59:58.344Z,2.4
2024-02-26T16:01:12.580Z,1.6
2024-02-26T16:02:25.841Z,2.1
2024-02-26T16:03:40.079Z,2
2024-02-26T16:04:54.317Z,1.9
2024-02-26T16:06:08.554Z,2.1
2024-02-26T16:07:22.797Z,1.7
2024-02-26T16:08:37.031Z,2.2
2024-02-26T16:09:51.271Z,2.4
2024-02-26T16:11:05.509Z,3.7
2024-02-26T16:12:19.753Z,2.2
2024-02-26T16:13:33.989Z,2.5
2024-02-26T16:14:48.226Z,2.1
2024-02-26T16:16:02.469Z,2.4
2024-02-26T16:17:16.707Z,2.8
2024-02-26T16:18:29.961Z,2.5
2024-02-26T16:19:44.204Z,2.7
2024-02-26T16:20:58.442Z,2
2024-02-26T16:22:12.687Z,2.1
2024-02-26T16:23:26.921Z,2.9
2024-02-26T16:24:41.162Z,2.1
2024-02-26T16:25:55.402Z,1.9
2024-02-26T16:27:09.640Z,1.8
2024-02-26T16:28:23.883Z,2.1
2024-02-26T16:29:38.115Z,2.8
2024-02-26T16:30:52.356Z,2.7
2024-02-26T16:32:06.597Z,3.3
2024-02-26T16:33:20.834Z,2.8
2024-02-26T16:34:34.093Z,2
2024-02-26T16:35:48.331Z,1.9
2024-02-26T16:37:02.571Z,2.9
2024-02-26T16:38:16.812Z,2.5
2024-02-26T16:39:31.053Z,2.4
2024-02-26T16:40:45.289Z,2.4
2024-02-26T16:41:59.529Z,2.3
2024-02-26T16:43:13.771Z,2.6
2024-02-26T16:44:28.012Z,1.8
2024-02-26T16:45:42.254Z,2.9
2024-02-26T16:46:56.484Z,3.4
2024-02-26T16:48:10.729Z,2.6
2024-02-26T16:49:24.966Z,2.4
2024-02-26T16:50:38.225Z,2.5
2024-02-26T16:51:52.462Z,2.2
2024-02-26T16:53:06.704Z,1.9
2024-02-26T16:54:20.946Z,2.4
2024-02-26T16:55:35.181Z,2.1
2024-02-26T16:56:49.425Z,2.1
2024-02-26T16:58:03.661Z,2.2
2024-02-26T16:59:17.901Z,1.9
2024-02-26T17:00:32.134Z,2
2024-02-26T17:01:46.382Z,2.7
2024-02-26T17:03:00.620Z,2.6
2024-02-26T17:04:14.859Z,2.9
2024-02-26T17:05:29.151Z,2.6
2024-02-26T17:06:42.460Z,2
2024-02-26T17:07:56.757Z,3.3
2024-02-26T17:09:11.053Z,2.6
2024-02-26T17:10:25.339Z,2.2
2024-02-26T17:11:39.639Z,1.6
2024-02-26T17:12:53.927Z,2.5